sensor_id;sensor_type;location;lat;lon;timestamp;P1;durP1;ratioP1;P2;durP2;ratioP2
61989;SDS011;54506;43.930;20.410;2022-10-16T00:00:21;13.82;;;6.32;;
61989;SDS011;54506;43.930;20.410;2022-10-16T00:02:46;13.35;;;6.18;;
61989;SDS011;54506;43.930;20.410;2022-10-16T00:05:12;13.27;;;6.10;;
61989;SDS011;54506;43.930;20.410;2022-10-16T00:07:37;14.63;;;6.63;;
61989;SDS011;54506;43.930;20.410;2022-10-16T00:10:03;14.98;;;7.00;;
61989;SDS011;54506;43.930;20.410;2022-10-16T00:12:28;15.02;;;7.05;;
61989;SDS011;54506;43.930;20.410;2022-10-16T00:14:54;14.68;;;7.32;;
61989;SDS011;54506;43.930;20.410;2022-10-16T00:17:19;16.67;;;7.22;;
61989;SDS011;54506;43.930;20.410;2022-10-16T00:19:44;16.15;;;7.20;;
61989;SDS011;54506;43.930;20.410;2022-10-16T00:22:10;16.40;;;7.07;;
61989;SDS011;54506;43.930;20.410;2022-10-16T00:24:36;16.10;;;7.05;;
61989;SDS011;54506;43.930;20.410;2022-10-16T00:27:01;16.58;;;7.65;;
61989;SDS011;54506;43.930;20.410;2022-10-16T00:29:27;17.85;;;7.65;;
61989;SDS011;54506;43.930;20.410;2022-10-16T00:31:52;15.70;;;7.47;;
61989;SDS011;54506;43.930;20.410;2022-10-16T00:34:18;14.68;;;7.28;;
61989;SDS011;54506;43.930;20.410;2022-10-16T00:36:43;14.25;;;6.97;;
61989;SDS011;54506;43.930;20.410;2022-10-16T00:39:09;13.88;;;6.78;;
61989;SDS011;54506;43.930;20.410;2022-10-16T00:41:34;14.63;;;7.13;;
61989;SDS011;54506;43.930;20.410;2022-10-16T00:44:00;13.10;;;6.10;;
61989;SDS011;54506;43.930;20.410;2022-10-16T00:48:57;14.30;;;6.25;;
61989;SDS011;54506;43.930;20.410;2022-10-16T00:51:28;16.67;;;7.82;;
61989;SDS011;54506;43.930;20.410;2022-10-16T00:53:55;18.15;;;7.50;;
61989;SDS011;54506;43.930;20.410;2022-10-16T00:56:21;12.48;;;5.95;;
61989;SDS011;54506;43.930;20.410;2022-10-16T00:58:46;13.68;;;5.63;;
61989;SDS011;54506;43.930;20.410;2022-10-16T01:01:12;14.02;;;6.05;;
61989;SDS011;54506;43.930;20.410;2022-10-16T01:03:38;16.02;;;6.25;;
61989;SDS011;54506;43.930;20.410;2022-10-16T01:09:18;14.82;;;7.30;;
61989;SDS011;54506;43.930;20.410;2022-10-16T01:14:26;18.02;;;6.97;;
61989;SDS011;54506;43.930;20.410;2022-10-16T01:17:28;13.35;;;6.05;;
61989;SDS011;54506;43.930;20.410;2022-10-16T01:22:12;15.65;;;7.22;;
61989;SDS011;54506;43.930;20.410;2022-10-16T01:24:42;15.82;;;7.20;;
61989;SDS011;54506;43.930;20.410;2022-10-16T01:27:12;17.15;;;8.40;;
61989;SDS011;54506;43.930;20.410;2022-10-16T01:32:10;19.23;;;9.43;;
61989;SDS011;54506;43.930;20.410;2022-10-16T01:34:41;18.58;;;9.23;;
61989;SDS011;54506;43.930;20.410;2022-10-16T01:37:09;19.30;;;9.27;;
61989;SDS011;54506;43.930;20.410;2022-10-16T01:39:36;17.52;;;8.60;;
61989;SDS011;54506;43.930;20.410;2022-10-16T01:42:11;15.65;;;8.10;;
61989;SDS011;54506;43.930;20.410;2022-10-16T01:44:39;16.45;;;8.35;;
61989;SDS011;54506;43.930;20.410;2022-10-16T01:47:06;16.45;;;7.95;;
61989;SDS011;54506;43.930;20.410;2022-10-16T01:49:33;11.57;;;5.30;;
61989;SDS011;54506;43.930;20.410;2022-10-16T01:52:00;14.63;;;6.80;;
61989;SDS011;54506;43.930;20.410;2022-10-16T01:54:27;15.07;;;7.50;;
61989;SDS011;54506;43.930;20.410;2022-10-16T01:56:54;15.45;;;7.22;;
61989;SDS011;54506;43.930;20.410;2022-10-16T01:59:20;15.10;;;7.28;;
61989;SDS011;54506;43.930;20.410;2022-10-16T02:01:50;15.32;;;7.65;;
61989;SDS011;54506;43.930;20.410;2022-10-16T02:06:43;15.23;;;7.07;;
61989;SDS011;54506;43.930;20.410;2022-10-16T02:09:08;15.48;;;7.57;;
61989;SDS011;54506;43.930;20.410;2022-10-16T02:11:34;15.77;;;6.80;;
61989;SDS011;54506;43.930;20.410;2022-10-16T02:14:03;14.82;;;6.55;;
61989;SDS011;54506;43.930;20.410;2022-10-16T02:16:37;14.88;;;6.70;;
61989;SDS011;54506;43.930;20.410;2022-10-16T02:19:03;14.00;;;6.90;;
61989;SDS011;54506;43.930;20.410;2022-10-16T02:21:29;13.98;;;6.82;;
61989;SDS011;54506;43.930;20.410;2022-10-16T02:26:46;16.42;;;7.95;;
61989;SDS011;54506;43.930;20.410;2022-10-16T02:29:10;15.60;;;7.22;;
61989;SDS011;54506;43.930;20.410;2022-10-16T02:31:38;14.93;;;7.13;;
61989;SDS011;54506;43.930;20.410;2022-10-16T02:34:05;15.43;;;6.75;;
61989;SDS011;54506;43.930;20.410;2022-10-16T02:36:32;15.80;;;6.57;;
61989;SDS011;54506;43.930;20.410;2022-10-16T02:38:59;15.05;;;6.53;;
61989;SDS011;54506;43.930;20.410;2022-10-16T02:41:26;16.40;;;7.13;;
61989;SDS011;54506;43.930;20.410;2022-10-16T02:43:52;13.98;;;6.88;;
61989;SDS011;54506;43.930;20.410;2022-10-16T02:46:19;12.10;;;5.93;;
61989;SDS011;54506;43.930;20.410;2022-10-16T02:48:44;13.68;;;6.65;;
61989;SDS011;54506;43.930;20.410;2022-10-16T02:51:09;12.82;;;6.50;;
61989;SDS011;54506;43.930;20.410;2022-10-16T02:53:35;14.45;;;6.40;;
61989;SDS011;54506;43.930;20.410;2022-10-16T02:56:01;15.13;;;5.88;;
61989;SDS011;54506;43.930;20.410;2022-10-16T02:58:26;14.35;;;6.00;;
61989;SDS011;54506;43.930;20.410;2022-10-16T03:00:52;12.07;;;5.75;;
61989;SDS011;54506;43.930;20.410;2022-10-16T03:03:17;13.43;;;6.47;;
61989;SDS011;54506;43.930;20.410;2022-10-16T03:05:43;12.25;;;5.82;;
61989;SDS011;54506;43.930;20.410;2022-10-16T03:08:11;12.15;;;5.30;;
61989;SDS011;54506;43.930;20.410;2022-10-16T03:10:36;12.35;;;5.43;;
61989;SDS011;54506;43.930;20.410;2022-10-16T03:13:01;10.43;;;5.20;;
61989;SDS011;54506;43.930;20.410;2022-10-16T03:15:27;13.13;;;5.38;;
61989;SDS011;54506;43.930;20.410;2022-10-16T03:17:54;12.25;;;5.60;;
61989;SDS011;54506;43.930;20.410;2022-10-16T03:20:19;11.73;;;5.15;;
61989;SDS011;54506;43.930;20.410;2022-10-16T03:22:45;13.40;;;6.28;;
61989;SDS011;54506;43.930;20.410;2022-10-16T03:25:10;12.77;;;5.53;;
61989;SDS011;54506;43.930;20.410;2022-10-16T03:27:35;12.98;;;5.57;;
61989;SDS011;54506;43.930;20.410;2022-10-16T03:30:01;12.68;;;6.05;;
61989;SDS011;54506;43.930;20.410;2022-10-16T03:32:27;12.48;;;5.40;;
61989;SDS011;54506;43.930;20.410;2022-10-16T03:34:53;12.10;;;5.20;;
61989;SDS011;54506;43.930;20.410;2022-10-16T03:37:19;10.05;;;5.18;;
61989;SDS011;54506;43.930;20.410;2022-10-16T03:39:45;9.75;;;4.82;;
61989;SDS011;54506;43.930;20.410;2022-10-16T03:42:11;13.82;;;5.80;;
61989;SDS011;54506;43.930;20.410;2022-10-16T03:44:37;12.68;;;6.13;;
61989;SDS011;54506;43.930;20.410;2022-10-16T03:47:03;11.27;;;5.20;;
61989;SDS011;54506;43.930;20.410;2022-10-16T03:49:28;14.68;;;5.95;;
61989;SDS011;54506;43.930;20.410;2022-10-16T03:51:54;12.25;;;5.65;;
61989;SDS011;54506;43.930;20.410;2022-10-16T03:54:19;12.57;;;5.50;;
61989;SDS011;54506;43.930;20.410;2022-10-16T03:56:45;11.55;;;5.35;;
61989;SDS011;54506;43.930;20.410;2022-10-16T03:59:10;12.73;;;5.82;;
61989;SDS011;54506;43.930;20.410;2022-10-16T04:01:35;14.07;;;5.85;;
61989;SDS011;54506;43.930;20.410;2022-10-16T04:04:01;13.45;;;6.22;;
61989;SDS011;54506;43.930;20.410;2022-10-16T04:06:26;12.20;;;5.68;;
61989;SDS011;54506;43.930;20.410;2022-10-16T04:08:52;12.70;;;5.30;;
61989;SDS011;54506;43.930;20.410;2022-10-16T04:11:17;11.05;;;5.03;;
61989;SDS011;54506;43.930;20.410;2022-10-16T04:13:42;11.32;;;4.95;;
61989;SDS011;54506;43.930;20.410;2022-10-16T04:16:08;11.05;;;5.10;;
61989;SDS011;54506;43.930;20.410;2022-10-16T04:18:34;12.30;;;5.10;;
61989;SDS011;54506;43.930;20.410;2022-10-16T04:21:03;12.20;;;5.75;;
61989;SDS011;54506;43.930;20.410;2022-10-16T04:23:29;12.38;;;5.45;;
61989;SDS011;54506;43.930;20.410;2022-10-16T04:25:55;11.30;;;5.15;;
61989;SDS011;54506;43.930;20.410;2022-10-16T04:28:20;13.07;;;5.80;;
61989;SDS011;54506;43.930;20.410;2022-10-16T04:30:45;14.35;;;5.50;;
61989;SDS011;54506;43.930;20.410;2022-10-16T04:33:11;10.73;;;5.68;;
61989;SDS011;54506;43.930;20.410;2022-10-16T04:35:37;12.25;;;5.65;;
61989;SDS011;54506;43.930;20.410;2022-10-16T04:38:03;13.15;;;5.78;;
61989;SDS011;54506;43.930;20.410;2022-10-16T04:40:29;11.82;;;5.70;;
61989;SDS011;54506;43.930;20.410;2022-10-16T04:42:54;10.23;;;4.93;;
61989;SDS011;54506;43.930;20.410;2022-10-16T04:45:19;11.30;;;5.18;;
61989;SDS011;54506;43.930;20.410;2022-10-16T04:47:45;10.82;;;4.75;;
61989;SDS011;54506;43.930;20.410;2022-10-16T04:50:10;11.35;;;5.38;;
61989;SDS011;54506;43.930;20.410;2022-10-16T04:52:36;10.82;;;5.07;;
61989;SDS011;54506;43.930;20.410;2022-10-16T04:55:01;12.52;;;5.25;;
61989;SDS011;54506;43.930;20.410;2022-10-16T04:57:28;11.25;;;5.00;;
61989;SDS011;54506;43.930;20.410;2022-10-16T04:59:54;12.23;;;5.35;;
61989;SDS011;54506;43.930;20.410;2022-10-16T05:02:19;11.90;;;5.15;;
61989;SDS011;54506;43.930;20.410;2022-10-16T05:04:45;11.27;;;5.28;;
61989;SDS011;54506;43.930;20.410;2022-10-16T05:07:10;14.15;;;5.82;;
61989;SDS011;54506;43.930;20.410;2022-10-16T05:09:36;10.57;;;5.65;;
61989;SDS011;54506;43.930;20.410;2022-10-16T05:12:01;14.20;;;5.47;;
61989;SDS011;54506;43.930;20.410;2022-10-16T05:14:28;11.80;;;5.38;;
61989;SDS011;54506;43.930;20.410;2022-10-16T05:16:54;12.88;;;5.88;;
61989;SDS011;54506;43.930;20.410;2022-10-16T05:19:19;12.93;;;5.75;;
61989;SDS011;54506;43.930;20.410;2022-10-16T05:21:45;13.07;;;6.60;;
61989;SDS011;54506;43.930;20.410;2022-10-16T05:24:10;14.23;;;6.32;;
61989;SDS011;54506;43.930;20.410;2022-10-16T05:26:36;11.95;;;5.70;;
61989;SDS011;54506;43.930;20.410;2022-10-16T05:29:01;16.15;;;7.50;;
61989;SDS011;54506;43.930;20.410;2022-10-16T05:31:28;18.83;;;8.00;;
61989;SDS011;54506;43.930;20.410;2022-10-16T05:33:57;16.17;;;7.03;;
61989;SDS011;54506;43.930;20.410;2022-10-16T05:36:23;12.57;;;6.13;;
61989;SDS011;54506;43.930;20.410;2022-10-16T05:38:50;13.02;;;5.72;;
61989;SDS011;54506;43.930;20.410;2022-10-16T05:41:15;14.05;;;6.68;;
61989;SDS011;54506;43.930;20.410;2022-10-16T05:43:46;12.07;;;6.68;;
61989;SDS011;54506;43.930;20.410;2022-10-16T05:46:12;14.65;;;7.43;;
61989;SDS011;54506;43.930;20.410;2022-10-16T05:48:37;13.45;;;7.15;;
61989;SDS011;54506;43.930;20.410;2022-10-16T05:51:04;11.88;;;6.28;;
61989;SDS011;54506;43.930;20.410;2022-10-16T05:53:30;11.65;;;5.78;;
61989;SDS011;54506;43.930;20.410;2022-10-16T05:55:56;11.32;;;5.68;;
61989;SDS011;54506;43.930;20.410;2022-10-16T05:58:22;10.27;;;5.45;;
61989;SDS011;54506;43.930;20.410;2022-10-16T06:00:54;11.50;;;5.50;;
61989;SDS011;54506;43.930;20.410;2022-10-16T06:03:20;11.02;;;5.63;;
61989;SDS011;54506;43.930;20.410;2022-10-16T06:05:45;10.85;;;5.88;;
61989;SDS011;54506;43.930;20.410;2022-10-16T06:08:11;12.07;;;5.93;;
61989;SDS011;54506;43.930;20.410;2022-10-16T06:10:36;11.63;;;5.78;;
61989;SDS011;54506;43.930;20.410;2022-10-16T06:13:02;12.27;;;5.28;;
61989;SDS011;54506;43.930;20.410;2022-10-16T06:15:27;9.77;;;5.20;;
61989;SDS011;54506;43.930;20.410;2022-10-16T06:17:52;10.38;;;5.47;;
61989;SDS011;54506;43.930;20.410;2022-10-16T06:20:18;10.65;;;5.40;;
61989;SDS011;54506;43.930;20.410;2022-10-16T06:22:43;12.73;;;6.00;;
61989;SDS011;54506;43.930;20.410;2022-10-16T06:25:09;12.02;;;5.47;;
61989;SDS011;54506;43.930;20.410;2022-10-16T06:27:34;10.57;;;5.22;;
61989;SDS011;54506;43.930;20.410;2022-10-16T06:30:00;10.75;;;5.57;;
61989;SDS011;54506;43.930;20.410;2022-10-16T06:32:25;11.38;;;5.40;;
61989;SDS011;54506;43.930;20.410;2022-10-16T06:34:52;11.52;;;5.90;;
61989;SDS011;54506;43.930;20.410;2022-10-16T06:37:17;13.50;;;5.97;;
61989;SDS011;54506;43.930;20.410;2022-10-16T06:39:42;14.13;;;6.00;;
61989;SDS011;54506;43.930;20.410;2022-10-16T06:42:08;10.13;;;5.45;;
61989;SDS011;54506;43.930;20.410;2022-10-16T06:44:33;10.85;;;5.75;;
61989;SDS011;54506;43.930;20.410;2022-10-16T06:46:59;11.27;;;5.88;;
61989;SDS011;54506;43.930;20.410;2022-10-16T06:49:24;11.43;;;5.57;;
61989;SDS011;54506;43.930;20.410;2022-10-16T06:51:50;12.63;;;5.75;;
61989;SDS011;54506;43.930;20.410;2022-10-16T06:54:15;12.77;;;6.28;;
61989;SDS011;54506;43.930;20.410;2022-10-16T06:56:41;9.82;;;5.53;;
61989;SDS011;54506;43.930;20.410;2022-10-16T06:59:07;10.75;;;5.63;;
61989;SDS011;54506;43.930;20.410;2022-10-16T07:01:32;12.68;;;6.22;;
61989;SDS011;54506;43.930;20.410;2022-10-16T07:03:58;12.52;;;6.32;;
61989;SDS011;54506;43.930;20.410;2022-10-16T07:06:25;12.80;;;6.45;;
61989;SDS011;54506;43.930;20.410;2022-10-16T07:08:51;14.00;;;6.50;;
61989;SDS011;54506;43.930;20.410;2022-10-16T07:11:17;13.82;;;7.20;;
61989;SDS011;54506;43.930;20.410;2022-10-16T07:13:44;16.00;;;8.35;;
61989;SDS011;54506;43.930;20.410;2022-10-16T07:16:10;20.08;;;10.18;;
61989;SDS011;54506;43.930;20.410;2022-10-16T07:18:36;21.40;;;9.30;;
61989;SDS011;54506;43.930;20.410;2022-10-16T07:21:04;18.63;;;8.50;;
61989;SDS011;54506;43.930;20.410;2022-10-16T07:23:30;14.43;;;7.50;;
61989;SDS011;54506;43.930;20.410;2022-10-16T07:25:55;13.57;;;6.35;;
61989;SDS011;54506;43.930;20.410;2022-10-16T07:28:21;11.80;;;5.90;;
61989;SDS011;54506;43.930;20.410;2022-10-16T07:30:47;11.73;;;5.63;;
61989;SDS011;54506;43.930;20.410;2022-10-16T07:33:12;12.32;;;6.15;;
61989;SDS011;54506;43.930;20.410;2022-10-16T07:35:38;10.30;;;5.60;;
61989;SDS011;54506;43.930;20.410;2022-10-16T07:38:03;12.60;;;6.03;;
61989;SDS011;54506;43.930;20.410;2022-10-16T07:40:29;12.60;;;6.00;;
61989;SDS011;54506;43.930;20.410;2022-10-16T07:42:54;13.23;;;6.25;;
61989;SDS011;54506;43.930;20.410;2022-10-16T07:45:19;11.73;;;5.97;;
61989;SDS011;54506;43.930;20.410;2022-10-16T07:47:45;11.85;;;6.22;;
61989;SDS011;54506;43.930;20.410;2022-10-16T07:50:10;13.68;;;6.70;;
61989;SDS011;54506;43.930;20.410;2022-10-16T07:52:36;14.15;;;7.00;;
61989;SDS011;54506;43.930;20.410;2022-10-16T07:55:01;14.23;;;7.47;;
61989;SDS011;54506;43.930;20.410;2022-10-16T07:57:28;15.77;;;8.20;;
61989;SDS011;54506;43.930;20.410;2022-10-16T07:59:53;19.73;;;9.93;;
61989;SDS011;54506;43.930;20.410;2022-10-16T08:02:19;21.10;;;10.73;;
61989;SDS011;54506;43.930;20.410;2022-10-16T08:04:46;17.55;;;9.38;;
61989;SDS011;54506;43.930;20.410;2022-10-16T08:07:11;13.80;;;7.25;;
61989;SDS011;54506;43.930;20.410;2022-10-16T08:09:37;13.00;;;7.00;;
61989;SDS011;54506;43.930;20.410;2022-10-16T08:12:02;11.38;;;6.43;;
61989;SDS011;54506;43.930;20.410;2022-10-16T08:14:29;12.90;;;6.78;;
61989;SDS011;54506;43.930;20.410;2022-10-16T08:16:54;13.18;;;6.95;;
61989;SDS011;54506;43.930;20.410;2022-10-16T08:19:19;13.85;;;7.18;;
61989;SDS011;54506;43.930;20.410;2022-10-16T08:21:47;12.75;;;6.80;;
61989;SDS011;54506;43.930;20.410;2022-10-16T08:24:12;15.30;;;7.70;;
61989;SDS011;54506;43.930;20.410;2022-10-16T08:26:38;12.57;;;6.55;;
61989;SDS011;54506;43.930;20.410;2022-10-16T08:29:04;12.27;;;6.40;;
61989;SDS011;54506;43.930;20.410;2022-10-16T08:31:29;11.40;;;5.40;;
61989;SDS011;54506;43.930;20.410;2022-10-16T08:33:54;10.55;;;5.88;;
61989;SDS011;54506;43.930;20.410;2022-10-16T08:36:20;10.25;;;5.43;;
61989;SDS011;54506;43.930;20.410;2022-10-16T08:38:49;10.13;;;5.20;;
61989;SDS011;54506;43.930;20.410;2022-10-16T08:41:35;9.43;;;4.90;;
61989;SDS011;54506;43.930;20.410;2022-10-16T08:44:13;8.90;;;4.72;;
61989;SDS011;54506;43.930;20.410;2022-10-16T08:49:17;7.93;;;4.00;;
61989;SDS011;54506;43.930;20.410;2022-10-16T08:51:43;8.50;;;3.70;;
61989;SDS011;54506;43.930;20.410;2022-10-16T08:54:26;8.10;;;3.90;;
61989;SDS011;54506;43.930;20.410;2022-10-16T08:59:18;8.43;;;4.07;;
61989;SDS011;54506;43.930;20.410;2022-10-16T09:01:45;9.55;;;4.60;;
61989;SDS011;54506;43.930;20.410;2022-10-16T09:11:42;8.32;;;4.25;;
61989;SDS011;54506;43.930;20.410;2022-10-16T09:16:38;7.45;;;3.97;;
61989;SDS011;54506;43.930;20.410;2022-10-16T09:21:36;8.82;;;4.25;;
61989;SDS011;54506;43.930;20.410;2022-10-16T09:24:16;8.48;;;3.90;;
61989;SDS011;54506;43.930;20.410;2022-10-16T09:26:42;8.98;;;4.20;;
61989;SDS011;54506;43.930;20.410;2022-10-16T09:29:14;7.05;;;3.90;;
61989;SDS011;54506;43.930;20.410;2022-10-16T09:31:40;7.75;;;4.03;;
61989;SDS011;54506;43.930;20.410;2022-10-16T09:34:06;7.60;;;3.90;;
61989;SDS011;54506;43.930;20.410;2022-10-16T09:36:41;8.40;;;4.10;;
61989;SDS011;54506;43.930;20.410;2022-10-16T09:39:09;8.55;;;3.90;;
61989;SDS011;54506;43.930;20.410;2022-10-16T09:41:35;8.07;;;3.72;;
61989;SDS011;54506;43.930;20.410;2022-10-16T09:44:02;8.55;;;4.07;;
61989;SDS011;54506;43.930;20.410;2022-10-16T09:46:30;7.72;;;4.03;;
61989;SDS011;54506;43.930;20.410;2022-10-16T09:49:03;8.23;;;4.03;;
61989;SDS011;54506;43.930;20.410;2022-10-16T09:51:30;7.55;;;3.80;;
61989;SDS011;54506;43.930;20.410;2022-10-16T09:54:11;7.57;;;3.63;;
61989;SDS011;54506;43.930;20.410;2022-10-16T09:56:37;7.55;;;3.75;;
61989;SDS011;54506;43.930;20.410;2022-10-16T09:59:11;9.45;;;3.83;;
61989;SDS011;54506;43.930;20.410;2022-10-16T10:01:40;7.60;;;3.72;;
61989;SDS011;54506;43.930;20.410;2022-10-16T10:04:06;9.70;;;3.67;;
61989;SDS011;54506;43.930;20.410;2022-10-16T10:06:36;7.57;;;3.85;;
61989;SDS011;54506;43.930;20.410;2022-10-16T10:09:15;7.25;;;3.60;;
61989;SDS011;54506;43.930;20.410;2022-10-16T10:11:43;7.53;;;3.55;;
61989;SDS011;54506;43.930;20.410;2022-10-16T10:16:40;7.22;;;3.45;;
61989;SDS011;54506;43.930;20.410;2022-10-16T10:19:09;6.80;;;3.30;;
61989;SDS011;54506;43.930;20.410;2022-10-16T10:21:38;7.53;;;3.50;;
61989;SDS011;54506;43.930;20.410;2022-10-16T10:24:03;6.63;;;3.40;;
61989;SDS011;54506;43.930;20.410;2022-10-16T10:26:30;9.27;;;3.72;;
61989;SDS011;54506;43.930;20.410;2022-10-16T10:31:26;9.57;;;4.05;;
61989;SDS011;54506;43.930;20.410;2022-10-16T10:38:52;8.15;;;3.75;;
61989;SDS011;54506;43.930;20.410;2022-10-16T10:54:38;7.30;;;3.72;;
61989;SDS011;54506;43.930;20.410;2022-10-16T10:57:09;7.20;;;3.55;;
61989;SDS011;54506;43.930;20.410;2022-10-16T11:08:06;6.65;;;3.88;;
61989;SDS011;54506;43.930;20.410;2022-10-16T11:11:17;8.90;;;4.10;;
61989;SDS011;54506;43.930;20.410;2022-10-16T11:13:31;8.13;;;3.78;;
61989;SDS011;54506;43.930;20.410;2022-10-16T11:15:59;7.03;;;3.60;;
61989;SDS011;54506;43.930;20.410;2022-10-16T11:18:48;10.68;;;4.07;;
61989;SDS011;54506;43.930;20.410;2022-10-16T11:21:11;6.97;;;3.63;;
61989;SDS011;54506;43.930;20.410;2022-10-16T11:23:42;7.47;;;3.97;;
61989;SDS011;54506;43.930;20.410;2022-10-16T11:26:26;8.23;;;4.05;;
61989;SDS011;54506;43.930;20.410;2022-10-16T11:28:53;11.27;;;4.97;;
61989;SDS011;54506;43.930;20.410;2022-10-16T11:31:37;9.98;;;5.20;;
61989;SDS011;54506;43.930;20.410;2022-10-16T11:38:58;9.95;;;4.65;;
61989;SDS011;54506;43.930;20.410;2022-10-16T11:46:52;7.05;;;3.78;;
61989;SDS011;54506;43.930;20.410;2022-10-16T11:49:21;7.82;;;4.20;;
61989;SDS011;54506;43.930;20.410;2022-10-16T11:52:00;10.32;;;4.35;;
61989;SDS011;54506;43.930;20.410;2022-10-16T11:54:32;7.07;;;3.58;;
61989;SDS011;54506;43.930;20.410;2022-10-16T11:57:01;8.43;;;4.13;;
61989;SDS011;54506;43.930;20.410;2022-10-16T12:01:54;7.93;;;3.58;;
61989;SDS011;54506;43.930;20.410;2022-10-16T12:07:06;8.07;;;3.80;;
61989;SDS011;54506;43.930;20.410;2022-10-16T12:09:34;8.15;;;3.60;;
61989;SDS011;54506;43.930;20.410;2022-10-16T12:12:01;7.55;;;3.95;;
61989;SDS011;54506;43.930;20.410;2022-10-16T12:20:00;7.70;;;3.33;;
61989;SDS011;54506;43.930;20.410;2022-10-16T12:22:27;8.40;;;3.38;;
61989;SDS011;54506;43.930;20.410;2022-10-16T12:24:53;6.95;;;3.42;;
61989;SDS011;54506;43.930;20.410;2022-10-16T12:27:31;8.55;;;4.00;;
61989;SDS011;54506;43.930;20.410;2022-10-16T12:30:00;7.72;;;3.80;;
61989;SDS011;54506;43.930;20.410;2022-10-16T12:32:36;7.43;;;3.50;;
61989;SDS011;54506;43.930;20.410;2022-10-16T12:35:02;7.35;;;3.65;;
61989;SDS011;54506;43.930;20.410;2022-10-16T12:37:32;7.30;;;3.88;;
61989;SDS011;54506;43.930;20.410;2022-10-16T12:39:58;7.88;;;3.80;;
61989;SDS011;54506;43.930;20.410;2022-10-16T12:44:52;8.52;;;3.63;;
61989;SDS011;54506;43.930;20.410;2022-10-16T12:47:23;10.00;;;3.72;;
61989;SDS011;54506;43.930;20.410;2022-10-16T12:49:52;7.93;;;3.78;;
61989;SDS011;54506;43.930;20.410;2022-10-16T12:52:35;5.80;;;3.13;;
61989;SDS011;54506;43.930;20.410;2022-10-16T12:55:01;7.28;;;3.58;;
61989;SDS011;54506;43.930;20.410;2022-10-16T12:57:43;8.95;;;4.20;;
61989;SDS011;54506;43.930;20.410;2022-10-16T13:00:15;9.23;;;4.95;;
61989;SDS011;54506;43.930;20.410;2022-10-16T13:08:30;75.63;;;29.23;;
61989;SDS011;54506;43.930;20.410;2022-10-16T13:11:14;602.05;;;256.15;;
61989;SDS011;54506;43.930;20.410;2022-10-16T13:21:44;113.25;;;51.10;;
61989;SDS011;54506;43.930;20.410;2022-10-16T13:29:20;1761.40;;;830.13;;
61989;SDS011;54506;43.930;20.410;2022-10-16T13:31:45;1284.30;;;633.45;;
61989;SDS011;54506;43.930;20.410;2022-10-16T13:34:12;655.92;;;327.80;;
61989;SDS011;54506;43.930;20.410;2022-10-16T13:36:46;115.45;;;77.00;;
61989;SDS011;54506;43.930;20.410;2022-10-16T13:41:37;1464.47;;;619.35;;
61989;SDS011;54506;43.930;20.410;2022-10-16T13:44:03;211.05;;;102.63;;
61989;SDS011;54506;43.930;20.410;2022-10-16T13:46:29;178.30;;;127.10;;
61989;SDS011;54506;43.930;20.410;2022-10-16T13:49:10;1218.22;;;546.65;;
61989;SDS011;54506;43.930;20.410;2022-10-16T13:51:36;1003.50;;;428.85;;
61989;SDS011;54506;43.930;20.410;2022-10-16T13:54:01;1999.90;;;999.90;;
61989;SDS011;54506;43.930;20.410;2022-10-16T13:56:28;507.00;;;328.73;;
61989;SDS011;54506;43.930;20.410;2022-10-16T13:59:37;1999.90;;;887.60;;
61989;SDS011;54506;43.930;20.410;2022-10-16T14:01:43;1595.15;;;662.92;;
61989;SDS011;54506;43.930;20.410;2022-10-16T14:04:09;1999.90;;;997.50;;
61989;SDS011;54506;43.930;20.410;2022-10-16T14:06:35;879.22;;;503.58;;
61989;SDS011;54506;43.930;20.410;2022-10-16T14:09:04;1862.68;;;751.92;;
61989;SDS011;54506;43.930;20.410;2022-10-16T14:11:30;442.73;;;178.70;;
61989;SDS011;54506;43.930;20.410;2022-10-16T14:13:56;218.95;;;97.10;;
61989;SDS011;54506;43.930;20.410;2022-10-16T14:16:23;380.58;;;158.40;;
61989;SDS011;54506;43.930;20.410;2022-10-16T14:18:55;1184.78;;;503.52;;
61989;SDS011;54506;43.930;20.410;2022-10-16T14:21:21;529.50;;;250.20;;
61989;SDS011;54506;43.930;20.410;2022-10-16T14:23:46;47.05;;;25.17;;
61989;SDS011;54506;43.930;20.410;2022-10-16T14:26:12;22.48;;;11.15;;
61989;SDS011;54506;43.930;20.410;2022-10-16T14:28:38;14.52;;;5.88;;
61989;SDS011;54506;43.930;20.410;2022-10-16T14:31:41;10.30;;;4.25;;
61989;SDS011;54506;43.930;20.410;2022-10-16T14:34:01;668.75;;;307.10;;
61989;SDS011;54506;43.930;20.410;2022-10-16T14:36:27;778.60;;;336.63;;
61989;SDS011;54506;43.930;20.410;2022-10-16T14:38:57;82.32;;;34.47;;
61989;SDS011;54506;43.930;20.410;2022-10-16T14:41:23;83.18;;;44.60;;
61989;SDS011;54506;43.930;20.410;2022-10-16T14:44:01;17.30;;;8.70;;
61989;SDS011;54506;43.930;20.410;2022-10-16T14:46:37;163.15;;;78.15;;
61989;SDS011;54506;43.930;20.410;2022-10-16T14:51:33;184.70;;;99.80;;
61989;SDS011;54506;43.930;20.410;2022-10-16T14:53:59;331.38;;;116.30;;
61989;SDS011;54506;43.930;20.410;2022-10-16T14:59:57;704.33;;;269.77;;
61989;SDS011;54506;43.930;20.410;2022-10-16T15:04:48;236.98;;;86.03;;
61989;SDS011;54506;43.930;20.410;2022-10-16T15:07:13;25.13;;;12.60;;
61989;SDS011;54506;43.930;20.410;2022-10-16T15:09:39;40.20;;;15.90;;
61989;SDS011;54506;43.930;20.410;2022-10-16T15:12:04;293.50;;;93.45;;
61989;SDS011;54506;43.930;20.410;2022-10-16T15:14:29;54.92;;;25.35;;
61989;SDS011;54506;43.930;20.410;2022-10-16T15:16:55;332.85;;;96.72;;
61989;SDS011;54506;43.930;20.410;2022-10-16T15:19:20;25.35;;;12.00;;
61989;SDS011;54506;43.930;20.410;2022-10-16T15:21:45;13.95;;;6.53;;
61989;SDS011;54506;43.930;20.410;2022-10-16T15:24:12;21.30;;;9.65;;
61989;SDS011;54506;43.930;20.410;2022-10-16T15:26:38;839.03;;;283.45;;
61989;SDS011;54506;43.930;20.410;2022-10-16T15:29:03;431.20;;;123.22;;
61989;SDS011;54506;43.930;20.410;2022-10-16T15:31:29;1055.90;;;334.27;;
61989;SDS011;54506;43.930;20.410;2022-10-16T15:33:55;886.17;;;266.20;;
61989;SDS011;54506;43.930;20.410;2022-10-16T15:36:27;654.65;;;217.98;;
61989;SDS011;54506;43.930;20.410;2022-10-16T15:38:52;423.52;;;111.43;;
61989;SDS011;54506;43.930;20.410;2022-10-16T15:41:18;457.67;;;126.10;;
61989;SDS011;54506;43.930;20.410;2022-10-16T15:43:44;40.28;;;18.50;;
61989;SDS011;54506;43.930;20.410;2022-10-16T15:46:10;16.33;;;7.57;;
61989;SDS011;54506;43.930;20.410;2022-10-16T15:48:36;12.35;;;5.43;;
61989;SDS011;54506;43.930;20.410;2022-10-16T15:51:04;20.00;;;7.40;;
61989;SDS011;54506;43.930;20.410;2022-10-16T15:53:30;11.80;;;5.53;;
61989;SDS011;54506;43.930;20.410;2022-10-16T15:55:56;20.25;;;7.80;;
61989;SDS011;54506;43.930;20.410;2022-10-16T15:58:21;394.35;;;139.57;;
61989;SDS011;54506;43.930;20.410;2022-10-16T16:00:54;110.40;;;43.05;;
61989;SDS011;54506;43.930;20.410;2022-10-16T16:03:19;31.38;;;13.98;;
61989;SDS011;54506;43.930;20.410;2022-10-16T16:05:44;17.67;;;7.32;;
61989;SDS011;54506;43.930;20.410;2022-10-16T16:08:10;37.90;;;14.15;;
61989;SDS011;54506;43.930;20.410;2022-10-16T16:10:35;46.45;;;15.90;;
61989;SDS011;54506;43.930;20.410;2022-10-16T16:13:00;41.65;;;15.93;;
61989;SDS011;54506;43.930;20.410;2022-10-16T16:15:26;42.72;;;16.45;;
61989;SDS011;54506;43.930;20.410;2022-10-16T16:17:51;65.88;;;29.48;;
61989;SDS011;54506;43.930;20.410;2022-10-16T16:20:16;65.43;;;27.75;;